createdAt,value
2023-04-22T00:01:17.577Z,3.13
2023-04-22T00:03:47.028Z,3.60
2023-04-22T00:06:15.630Z,3.55
2023-04-22T00:08:43.446Z,3.47
2023-04-22T00:11:11.409Z,3.50
2023-04-22T00:13:39.276Z,3.28
2023-04-22T00:16:07.858Z,3.28
2023-04-22T00:18:36.392Z,3.40
2023-04-22T00:21:06.578Z,3.58
2023-04-22T00:23:34.556Z,2.90
2023-04-22T00:26:02.609Z,3.30
2023-04-22T00:28:30.524Z,3.33
2023-04-22T00:30:59.022Z,3.08
2023-04-22T00:33:26.911Z,2.85
2023-04-22T00:35:54.874Z,2.95
2023-04-22T00:38:25.164Z,2.97
2023-04-22T00:40:52.952Z,3.13
2023-04-22T00:43:20.758Z,2.78
2023-04-22T00:45:50.433Z,3.10
2023-04-22T00:48:18.768Z,3.05
2023-04-22T00:50:46.584Z,2.97
2023-04-22T00:53:14.296Z,2.65
2023-04-22T00:55:43.548Z,3.28
2023-04-22T00:58:11.869Z,2.92
2023-04-22T01:00:39.705Z,3.05
2023-04-22T01:03:08.644Z,2.67
2023-04-22T01:05:37.406Z,3.00
2023-04-22T01:08:05.285Z,2.70
2023-04-22T01:10:33.045Z,2.70
2023-04-22T01:13:02.326Z,2.65
2023-04-22T01:15:30.188Z,3.17
2023-04-22T01:17:59.442Z,2.67
2023-04-22T01:20:29.729Z,2.97
2023-04-22T01:23:03.339Z,2.42
2023-04-22T01:25:32.802Z,3.10
2023-04-22T01:28:00.940Z,2.88
2023-04-22T01:30:28.870Z,2.80
2023-04-22T01:32:56.784Z,3.20
2023-04-22T01:35:24.676Z,2.95
2023-04-22T01:37:52.448Z,2.90
2023-04-22T01:40:22.826Z,2.83
2023-04-22T01:42:52.305Z,3.08
2023-04-22T01:45:20.612Z,2.67
2023-04-22T01:47:48.478Z,3.22
2023-04-22T01:50:16.157Z,3.00
2023-04-22T01:52:44.061Z,3.00
2023-04-22T01:55:12.007Z,2.25
2023-04-22T01:57:40.019Z,2.85
2023-04-22T02:00:10.520Z,2.75
2023-04-22T02:02:41.303Z,2.70
2023-04-22T02:05:10.045Z,3.00
2023-04-22T02:07:37.721Z,3.00
2023-04-22T02:10:06.373Z,3.38
2023-04-22T02:12:34.256Z,3.25
2023-04-22T02:15:02.049Z,3.03
2023-04-22T02:17:31.349Z,3.58
2023-04-22T02:19:59.326Z,3.00
2023-04-22T02:22:28.367Z,2.88
2023-04-22T02:24:56.382Z,3.15
2023-04-22T02:27:24.105Z,2.88
2023-04-22T02:29:52.700Z,2.90
2023-04-22T02:32:20.621Z,2.60
2023-04-22T02:34:53.205Z,2.97
2023-04-22T02:37:23.309Z,2.85
2023-04-22T02:39:51.683Z,2.90
2023-04-22T02:42:20.008Z,2.83
2023-04-22T02:44:48.391Z,2.95
2023-04-22T02:47:17.188Z,2.97
2023-04-22T02:49:45.393Z,2.55
2023-04-22T02:52:15.242Z,3.03
2023-04-22T02:54:43.565Z,2.88
2023-04-22T02:57:11.992Z,2.63
2023-04-22T02:59:40.562Z,2.50
2023-04-22T03:02:11.804Z,2.75
2023-04-22T03:04:58.492Z,2.90
2023-04-22T03:07:28.442Z,2.70
2023-04-22T03:09:57.216Z,2.55
2023-04-22T03:12:26.084Z,2.53
2023-04-22T03:14:54.377Z,2.88
2023-04-22T03:17:26.250Z,2.60
2023-04-22T03:19:54.741Z,2.72
2023-04-22T03:22:23.285Z,2.88
2023-04-22T03:24:56.481Z,2.80
2023-04-22T03:27:28.450Z,2.90
2023-04-22T03:29:56.823Z,2.85
2023-04-22T03:32:25.799Z,2.95
2023-04-22T03:35:09.605Z,3.10
2023-04-22T03:37:38.042Z,2.78
2023-04-22T03:40:13.044Z,2.90
2023-04-22T03:42:42.260Z,3.30
2023-04-22T03:45:11.416Z,2.80
2023-04-22T03:47:45.323Z,2.70
2023-04-22T03:50:22.716Z,2.92
2023-04-22T03:52:53.515Z,2.97
2023-04-22T03:55:24.593Z,2.70
2023-04-22T03:57:54.659Z,3.20
2023-04-22T04:00:23.134Z,3.00
2023-04-22T04:03:04.343Z,3.00
2023-04-22T04:05:32.998Z,3.22
2023-04-22T04:08:01.523Z,3.05
2023-04-22T04:10:31.647Z,3.15
2023-04-22T04:13:01.529Z,3.33
2023-04-22T04:15:36.862Z,2.90
2023-04-22T04:18:05.909Z,2.63
2023-04-22T04:20:34.908Z,2.60
2023-04-22T04:23:03.901Z,3.00
2023-04-22T04:25:37.994Z,2.58
2023-04-22T04:28:12.358Z,2.78
2023-04-22T04:30:41.964Z,2.90
2023-04-22T04:33:10.670Z,2.65
2023-04-22T04:35:41.988Z,3.03
2023-04-22T04:38:13.281Z,2.83
2023-04-22T04:40:45.618Z,2.83
2023-04-22T04:43:20.973Z,2.97
2023-04-22T04:45:55.107Z,2.90
2023-04-22T04:48:36.509Z,2.13
2023-04-22T04:51:09.001Z,3.40
2023-04-22T04:53:42.992Z,2.88
2023-04-22T04:56:13.310Z,2.75
2023-04-22T04:58:43.281Z,3.03
2023-04-22T05:01:17.422Z,3.00
2023-04-22T05:03:47.669Z,2.80
2023-04-22T05:06:18.742Z,2.83
2023-04-22T05:08:51.122Z,3.10
2023-04-22T05:11:21.902Z,2.75
2023-04-22T05:13:52.500Z,2.92
2023-04-22T05:16:27.785Z,2.65
2023-04-22T05:18:56.846Z,2.63
2023-04-22T05:21:25.252Z,2.92
2023-04-22T05:23:53.470Z,2.72
2023-04-22T05:26:23.216Z,2.78
2023-04-22T05:28:52.088Z,3.30
2023-04-22T05:31:20.876Z,2.85
2023-04-22T05:33:49.241Z,3.22
2023-04-22T05:36:17.670Z,3.47
2023-04-22T05:38:48.145Z,3.03
2023-04-22T05:41:17.224Z,3.33
2023-04-22T05:43:47.440Z,3.33
2023-04-22T05:46:18.926Z,2.92
2023-04-22T05:48:49.481Z,3.58
2023-04-22T05:51:47.064Z,3.53
2023-04-22T05:54:18.481Z,2.88
2023-04-22T05:56:47.142Z,3.10
2023-04-22T05:59:17.826Z,3.53
2023-04-22T06:01:47.172Z,3.38
2023-04-22T06:04:20.426Z,3.00
2023-04-22T06:06:50.191Z,3.40
2023-04-22T06:09:18.410Z,3.28
2023-04-22T06:11:46.968Z,3.33
2023-04-22T06:14:17.268Z,3.45
2023-04-22T06:16:47.335Z,3.25
2023-04-22T06:19:15.776Z,4.00
2023-04-22T06:21:44.001Z,3.58
2023-04-22T06:24:12.411Z,3.78
2023-04-22T06:26:43.570Z,3.58
2023-04-22T06:29:12.162Z,3.25
2023-04-22T06:31:43.090Z,3.33
2023-04-22T06:34:11.290Z,3.58
2023-04-22T06:36:39.579Z,3.80
2023-04-22T06:39:10.567Z,3.65
2023-04-22T06:41:49.346Z,4.63
2023-04-22T06:44:36.668Z,3.75
2023-04-22T06:47:38.297Z,4.57
2023-04-22T06:50:11.183Z,4.75
2023-04-22T06:52:46.760Z,13.98
2023-04-22T06:55:14.722Z,8.68
2023-04-22T06:57:42.590Z,10.18
2023-04-22T07:00:11.275Z,8.32
2023-04-22T07:02:42.437Z,8.23
2023-04-22T07:05:10.669Z,8.15
2023-04-22T07:07:39.221Z,8.85
2023-04-22T07:10:08.412Z,9.30
2023-04-22T07:12:45.487Z,8.30
2023-04-22T07:15:13.208Z,9.43
2023-04-22T07:17:42.518Z,9.57
2023-04-22T07:20:16.898Z,9.00
2023-04-22T07:22:44.651Z,8.63
2023-04-22T07:25:12.264Z,8.63
2023-04-22T07:27:39.998Z,7.72
2023-04-22T07:30:09.432Z,7.85
2023-04-22T07:32:37.263Z,7.55
2023-04-22T07:35:07.768Z,6.72
2023-04-22T07:37:35.784Z,6.97
2023-04-22T07:40:03.716Z,6.30
2023-04-22T07:42:31.612Z,6.75
2023-04-22T07:44:59.243Z,5.82
2023-04-22T07:47:28.569Z,5.40
2023-04-22T07:49:56.347Z,5.93
2023-04-22T07:52:25.525Z,4.97
2023-04-22T07:54:53.283Z,5.55
2023-04-22T07:57:22.743Z,5.03
2023-04-22T07:59:50.545Z,5.45
2023-04-22T08:02:18.700Z,5.30
2023-04-22T08:04:46.570Z,5.22
2023-04-22T08:07:30.944Z,5.75
2023-04-22T08:10:02.665Z,5.63
2023-04-22T08:12:30.465Z,4.80
2023-04-22T08:14:59.158Z,29.05
2023-04-22T08:17:27.357Z,7.57
2023-04-22T08:19:55.187Z,5.82
2023-04-22T08:22:24.210Z,6.05
2023-04-22T08:24:52.126Z,5.70
2023-04-22T08:27:23.206Z,5.78
2023-04-22T08:29:51.037Z,6.35
2023-04-22T08:32:20.148Z,5.93
2023-04-22T08:34:51.636Z,5.60
2023-04-22T08:37:20.102Z,4.72
2023-04-22T08:39:47.797Z,4.60
2023-04-22T08:42:16.385Z,4.80
2023-04-22T08:44:46.848Z,4.93
2023-04-22T08:47:16.148Z,4.93
2023-04-22T08:49:44.550Z,5.53
2023-04-22T08:52:15.418Z,5.65
2023-04-22T08:54:43.285Z,6.22
2023-04-22T08:57:11.464Z,6.03
2023-04-22T08:59:40.603Z,6.10
2023-04-22T09:02:17.485Z,5.90
2023-04-22T09:07:21.525Z,4.72
2023-04-22T09:09:49.849Z,8.73
2023-04-22T09:12:19.326Z,6.15
2023-04-22T09:14:48.307Z,5.75
2023-04-22T09:17:19.040Z,5.03
2023-04-22T09:19:46.907Z,5.03
2023-04-22T09:22:16.326Z,4.75
2023-04-22T09:24:49.262Z,5.40
2023-04-22T09:27:17.930Z,5.00
2023-04-22T09:29:50.105Z,5.50
2023-04-22T09:32:19.919Z,5.45
2023-04-22T09:34:51.481Z,5.10
2023-04-22T09:37:28.990Z,4.03
2023-04-22T09:40:04.645Z,4.32
2023-04-22T09:42:32.449Z,3.60
2023-04-22T09:45:02.022Z,4.22
2023-04-22T09:47:37.878Z,4.28
2023-04-22T09:50:06.453Z,4.25
2023-04-22T09:52:34.422Z,4.13
2023-04-22T09:55:02.462Z,3.30
2023-04-22T09:57:30.184Z,4.22
2023-04-22T10:00:00.914Z,4.22
2023-04-22T10:02:30.129Z,4.10
2023-04-22T10:05:00.576Z,3.25
2023-04-22T10:07:31.904Z,2.90
2023-04-22T10:10:00.081Z,2.92
2023-04-22T10:12:35.207Z,2.63
2023-04-22T10:15:04.219Z,2.60
2023-04-22T10:17:34.426Z,3.00
2023-04-22T10:20:08.183Z,2.47
2023-04-22T10:22:36.021Z,2.38
2023-04-22T10:25:03.981Z,2.65
2023-04-22T10:27:32.388Z,2.35
2023-04-22T10:30:01.074Z,2.03
2023-04-22T10:32:28.918Z,2.00
2023-04-22T10:35:16.749Z,1.92
2023-04-22T10:37:46.580Z,4.05
2023-04-22T10:40:17.653Z,2.47
2023-04-22T10:42:51.192Z,2.08
2023-04-22T10:45:20.434Z,2.17
2023-04-22T10:47:48.472Z,2.00
2023-04-22T10:50:24.386Z,2.53
2023-04-22T10:52:55.824Z,2.20
2023-04-22T10:55:24.674Z,2.47
2023-04-22T10:57:53.754Z,2.70
2023-04-22T11:00:41.692Z,2.00
2023-04-22T11:03:17.411Z,1.80
2023-04-22T11:05:47.097Z,1.67
2023-04-22T11:08:20.893Z,2.22
2023-04-22T11:10:50.165Z,2.00
2023-04-22T11:13:19.702Z,1.80
2023-04-22T11:15:49.486Z,2.00
2023-04-22T11:18:22.330Z,1.83
2023-04-22T11:20:53.626Z,1.90
2023-04-22T11:23:24.607Z,1.48
2023-04-22T11:25:57.925Z,1.92
2023-04-22T11:28:26.378Z,1.50
2023-04-22T11:31:01.426Z,2.22
2023-04-22T11:33:29.616Z,2.00
2023-04-22T11:35:58.926Z,2.15
2023-04-22T11:38:26.925Z,2.08
2023-04-22T11:40:59.413Z,1.50
2023-04-22T11:43:27.466Z,1.38
2023-04-22T11:46:00.905Z,1.45
2023-04-22T11:48:29.010Z,1.70
2023-04-22T11:51:11.842Z,1.95
2023-04-22T11:53:41.461Z,1.52
2023-04-22T11:56:09.435Z,4.85
2023-04-22T11:58:41.340Z,1.80
2023-04-22T12:01:14.132Z,2.03
2023-04-22T12:03:42.601Z,1.58
2023-04-22T12:06:12.373Z,1.40
2023-04-22T12:08:43.503Z,1.60
2023-04-22T12:11:12.665Z,1.23
2023-04-22T12:13:43.709Z,1.50
2023-04-22T12:16:12.943Z,1.50
2023-04-22T12:18:48.291Z,1.48
2023-04-22T12:21:20.341Z,1.50
2023-04-22T12:23:49.959Z,1.45
2023-04-22T12:26:19.213Z,1.27
2023-04-22T12:28:47.969Z,1.20
2023-04-22T12:31:17.126Z,1.20
2023-04-22T12:33:46.670Z,1.92
2023-04-22T12:36:16.861Z,2.28
2023-04-22T12:38:45.371Z,1.20
2023-04-22T12:41:13.266Z,1.58
2023-04-22T12:43:41.466Z,1.00
2023-04-22T12:46:10.724Z,1.00
2023-04-22T12:48:41.269Z,1.58
2023-04-22T12:51:09.348Z,1.30
2023-04-22T12:53:38.862Z,1.10
2023-04-22T12:56:07.183Z,1.55
2023-04-22T12:58:35.249Z,1.40
2023-04-22T13:01:03.439Z,3.65
2023-04-22T13:03:32.123Z,2.05
2023-04-22T13:06:00.239Z,1.60
2023-04-22T13:08:30.146Z,1.52
2023-04-22T13:11:00.716Z,2.05
2023-04-22T13:13:28.924Z,2.53
2023-04-22T13:15:57.340Z,2.20
2023-04-22T13:18:25.485Z,1.67
2023-04-22T13:20:55.416Z,1.98
2023-04-22T13:23:23.788Z,2.20
2023-04-22T13:25:53.800Z,2.30
2023-04-22T13:28:23.307Z,1.80
2023-04-22T13:30:51.314Z,1.50
2023-04-22T13:33:20.048Z,1.38
2023-04-22T13:35:48.370Z,1.83
2023-04-22T13:38:16.461Z,1.85
2023-04-22T13:40:44.671Z,1.80
2023-04-22T13:43:12.729Z,2.03
2023-04-22T13:45:42.736Z,1.60
2023-04-22T13:48:10.850Z,1.45
2023-04-22T13:50:42.923Z,1.40
2023-04-22T13:53:12.144Z,1.60
2023-04-22T13:55:40.392Z,2.10
2023-04-22T13:58:09.490Z,1.90
2023-04-22T14:00:37.431Z,1.70
2023-04-22T14:03:07.113Z,1.60
2023-04-22T14:05:35.295Z,1.63
2023-04-22T14:08:03.116Z,1.73
2023-04-22T14:10:31.240Z,1.95
2023-04-22T14:12:59.325Z,1.80
2023-04-22T14:15:27.557Z,1.52
2023-04-22T14:17:55.583Z,1.70
2023-04-22T14:20:26.214Z,1.40
2023-04-22T14:22:54.260Z,1.73
2023-04-22T14:25:22.148Z,1.70
2023-04-22T14:27:50.796Z,1.63
2023-04-22T14:30:19.870Z,1.50
2023-04-22T14:32:47.948Z,1.50
2023-04-22T14:35:16.184Z,1.50
2023-04-22T14:37:45.680Z,1.90
2023-04-22T14:40:23.385Z,1.70
2023-04-22T14:42:51.560Z,1.67
2023-04-22T14:45:19.624Z,1.50
2023-04-22T14:47:47.584Z,1.52
2023-04-22T14:50:15.548Z,1.40
2023-04-22T14:52:45.284Z,1.50
2023-04-22T14:55:22.731Z,1.55
2023-04-22T14:58:07.316Z,1.80
2023-04-22T15:00:35.477Z,1.23
2023-04-22T15:03:03.704Z,1.48
2023-04-22T15:05:32.366Z,1.48
2023-04-22T15:08:02.013Z,1.40
2023-04-22T15:10:30.211Z,1.48
2023-04-22T15:12:58.725Z,1.60
2023-04-22T15:15:28.011Z,1.10
2023-04-22T15:17:56.278Z,1.33
2023-04-22T15:20:29.392Z,1.60
2023-04-22T15:22:57.958Z,1.23
2023-04-22T15:25:29.682Z,1.42
2023-04-22T15:28:03.582Z,1.35
2023-04-22T15:30:33.416Z,1.23
2023-04-22T15:33:01.543Z,1.17
2023-04-22T15:35:45.320Z,0.95
2023-04-22T15:38:14.427Z,1.20
2023-04-22T15:40:44.502Z,1.20
2023-04-22T15:43:15.626Z,1.00
2023-04-22T15:45:43.845Z,1.17
2023-04-22T15:48:11.624Z,1.10
2023-04-22T15:50:40.962Z,1.63
2023-04-22T15:53:08.807Z,1.20
2023-04-22T15:55:36.665Z,1.80
2023-04-22T15:58:06.603Z,1.60
2023-04-22T16:00:36.014Z,1.40
2023-04-22T16:03:04.618Z,1.60
2023-04-22T16:05:34.880Z,1.58
2023-04-22T16:08:02.765Z,1.55
2023-04-22T16:10:30.522Z,1.70
2023-04-22T16:12:58.753Z,2.17
2023-04-22T16:15:28.576Z,2.38
2023-04-22T16:17:56.943Z,2.50
2023-04-22T16:20:25.413Z,2.58
2023-04-22T16:22:53.310Z,2.15
2023-04-22T16:25:21.244Z,2.65
2023-04-22T16:27:49.395Z,2.47
2023-04-22T16:30:17.458Z,2.65
2023-04-22T16:32:46.648Z,2.55
2023-04-22T16:35:14.548Z,2.10
2023-04-22T16:37:42.308Z,2.42
2023-04-22T16:40:10.784Z,2.35
2023-04-22T16:42:38.705Z,2.20
2023-04-22T16:45:08.209Z,2.30
2023-04-22T16:47:36.191Z,2.38
2023-04-22T16:50:06.640Z,1.80
2023-04-22T16:52:34.508Z,2.30
2023-04-22T16:55:02.810Z,2.50
2023-04-22T16:57:30.588Z,2.95
2023-04-22T16:59:58.603Z,2.53
2023-04-22T17:02:26.558Z,2.95
2023-04-22T17:04:54.550Z,2.65
2023-04-22T17:07:23.919Z,3.00
2023-04-22T17:09:51.782Z,2.72
2023-04-22T17:12:19.626Z,3.00
2023-04-22T17:14:47.733Z,2.80
2023-04-22T17:17:15.559Z,2.75
2023-04-22T17:19:44.245Z,3.10
2023-04-22T17:22:12.339Z,3.67
2023-04-22T17:24:41.870Z,3.17
2023-04-22T17:27:09.702Z,2.50
2023-04-22T17:29:37.585Z,3.33
2023-04-22T17:32:28.710Z,2.88
2023-04-22T17:34:56.454Z,3.08
2023-04-22T17:37:24.090Z,3.72
2023-04-22T17:39:53.307Z,3.47
2023-04-22T17:42:21.477Z,3.35
2023-04-22T17:44:50.163Z,3.40
2023-04-22T17:47:17.942Z,3.47
2023-04-22T17:49:45.917Z,3.10
2023-04-22T17:52:13.781Z,3.75
2023-04-22T17:54:41.793Z,3.25
2023-04-22T17:57:11.990Z,3.70
2023-04-22T17:59:40.241Z,3.53
2023-04-22T18:02:11.453Z,3.15
2023-04-22T18:04:39.355Z,3.20
2023-04-22T18:07:07.241Z,3.22
2023-04-22T18:09:35.021Z,2.95
2023-04-22T18:12:02.706Z,3.00
2023-04-22T18:14:32.323Z,3.00
2023-04-22T18:17:00.678Z,3.15
2023-04-22T18:19:28.780Z,2.90
2023-04-22T18:22:00.175Z,3.35
2023-04-22T18:24:28.500Z,3.55
2023-04-22T18:26:56.712Z,3.55
2023-04-22T18:29:24.608Z,3.72
2023-04-22T18:31:53.943Z,3.97
2023-04-22T18:34:21.852Z,3.90
2023-04-22T18:36:49.629Z,3.70
2023-04-22T18:39:17.471Z,3.65
2023-04-22T18:41:45.911Z,4.38
2023-04-22T18:44:14.071Z,3.75
2023-04-22T18:46:42.183Z,4.57
2023-04-22T18:49:12.419Z,4.20
2023-04-22T18:51:41.998Z,4.40
2023-04-22T18:54:09.978Z,4.00
2023-04-22T18:56:37.694Z,3.92
2023-04-22T18:59:05.785Z,3.90
2023-04-22T19:01:34.503Z,4.43
2023-04-22T19:04:02.242Z,4.05
2023-04-22T19:06:32.293Z,4.03
2023-04-22T19:09:00.217Z,4.15
2023-04-22T19:11:28.614Z,4.03
2023-04-22T19:13:57.925Z,4.00
2023-04-22T19:16:26.527Z,4.00
2023-04-22T19:18:54.676Z,3.85
2023-04-22T19:21:22.842Z,3.80
2023-04-22T19:23:53.066Z,3.58
2023-04-22T19:26:22.469Z,3.47
2023-04-22T19:28:50.185Z,3.50
2023-04-22T19:31:18.675Z,3.63
2023-04-22T19:33:46.504Z,3.38
2023-04-22T19:36:14.823Z,2.65
2023-04-22T19:38:43.594Z,3.03
2023-04-22T19:41:13.835Z,2.63
2023-04-22T19:43:42.192Z,2.70
2023-04-22T19:46:10.256Z,2.38
2023-04-22T19:48:38.972Z,2.78
2023-04-22T19:51:07.091Z,2.55
2023-04-22T19:53:36.940Z,2.50
2023-04-22T19:56:05.296Z,3.05
2023-04-22T19:58:35.492Z,2.63
2023-04-22T20:01:05.706Z,2.85
2023-04-22T20:03:37.735Z,2.80
2023-04-22T20:06:07.537Z,3.15
2023-04-22T20:08:36.091Z,2.58
2023-04-22T20:11:04.857Z,2.53
2023-04-22T20:13:34.880Z,2.75
2023-04-22T20:16:04.190Z,2.88
2023-04-22T20:18:32.582Z,3.05
2023-04-22T20:21:01.423Z,2.70
2023-04-22T20:23:30.356Z,3.72
2023-04-22T20:25:59.249Z,4.20
2023-04-22T20:28:43.264Z,3.88
2023-04-22T20:31:11.768Z,6.70
2023-04-22T20:33:40.078Z,3.95
2023-04-22T20:36:08.839Z,3.53
2023-04-22T20:38:38.111Z,3.10
2023-04-22T20:41:07.252Z,2.90
2023-04-22T20:43:35.660Z,2.72
2023-04-22T20:46:05.936Z,2.60
2023-04-22T20:48:34.336Z,2.40
2023-04-22T20:51:02.570Z,2.65
2023-04-22T20:53:31.298Z,2.90
2023-04-22T20:55:59.395Z,2.72
2023-04-22T20:58:28.469Z,2.60
2023-04-22T21:00:57.251Z,2.78
2023-04-22T21:03:28.558Z,2.53
2023-04-22T21:05:59.018Z,2.92
2023-04-22T21:08:27.551Z,2.92
2023-04-22T21:10:56.822Z,2.63
2023-04-22T21:13:25.357Z,3.13
2023-04-22T21:15:58.610Z,3.40
2023-04-22T21:18:29.960Z,3.28
2023-04-22T21:20:58.722Z,3.30
2023-04-22T21:23:27.454Z,3.28
2023-04-22T21:25:56.263Z,3.25
2023-04-22T21:28:24.960Z,3.30
2023-04-22T21:30:53.490Z,3.40
2023-04-22T21:33:21.551Z,3.30
2023-04-22T21:35:51.096Z,3.38
2023-04-22T21:38:20.104Z,3.20
2023-04-22T21:40:48.419Z,3.28
2023-04-22T21:43:16.461Z,3.55
2023-04-22T21:45:44.530Z,4.13
2023-04-22T21:48:12.787Z,5.00
2023-04-22T21:50:40.896Z,5.10
2023-04-22T21:53:11.317Z,5.22
2023-04-22T21:55:39.767Z,5.15
2023-04-22T21:58:07.743Z,5.30
2023-04-22T22:00:36.456Z,4.03
2023-04-22T22:03:04.895Z,4.18
2023-04-22T22:05:33.387Z,3.97
2023-04-22T22:08:02.053Z,3.83
2023-04-22T22:10:31.800Z,3.70
2023-04-22T22:12:59.967Z,3.50
2023-04-22T22:15:28.066Z,3.25
2023-04-22T22:17:56.282Z,3.55
2023-04-22T22:20:24.504Z,3.00
2023-04-22T22:22:52.856Z,2.83
2023-04-22T22:25:20.947Z,2.90
2023-04-22T22:27:50.989Z,3.33
2023-04-22T22:30:22.336Z,3.58
2023-04-22T22:32:50.697Z,3.42
2023-04-22T22:35:18.929Z,3.97
2023-04-22T22:37:47.234Z,3.90
2023-04-22T22:40:15.361Z,3.60
2023-04-22T22:42:43.499Z,4.05
2023-04-22T22:45:13.522Z,4.10
2023-04-22T22:47:42.023Z,4.38
2023-04-22T22:50:11.810Z,4.43
2023-04-22T22:52:40.067Z,4.30
2023-04-22T22:55:08.888Z,4.03
2023-04-22T22:57:36.991Z,3.67
2023-04-22T23:00:07.332Z,3.80
2023-04-22T23:02:37.052Z,3.45
2023-04-22T23:05:07.301Z,3.22
2023-04-22T23:07:36.262Z,3.97
2023-04-22T23:10:04.634Z,3.50
2023-04-22T23:12:32.724Z,3.42
2023-04-22T23:15:00.660Z,3.28
2023-04-22T23:17:28.783Z,3.15
2023-04-22T23:19:58.547Z,3.25
2023-04-22T23:22:27.024Z,3.70
2023-04-22T23:24:55.554Z,3.00
2023-04-22T23:27:24.077Z,3.17
2023-04-22T23:29:52.361Z,2.70
2023-04-22T23:32:21.578Z,2.97
2023-04-22T23:34:53.624Z,3.25
2023-04-22T23:37:28.262Z,3.15
2023-04-22T23:39:56.167Z,3.45
2023-04-22T23:42:24.059Z,2.63
2023-04-22T23:44:51.910Z,3.53
2023-04-22T23:47:19.803Z,2.67
2023-04-22T23:49:48.502Z,2.88
2023-04-22T23:52:16.242Z,3.00
2023-04-22T23:54:46.456Z,3.05
2023-04-22T23:57:14.665Z,3.75
2023-04-22T23:59:43.340Z,3.00
